sensor_id;sensor_type;location;lat;lon;timestamp;temperature;humidity
2577;DHT22;1298;51.252;6.802;2022-10-16T00:01:49;13.90;99.90
2577;DHT22;1298;51.252;6.802;2022-10-16T00:04:34;13.90;99.90
2577;DHT22;1298;51.252;6.802;2022-10-16T00:07:19;13.90;99.90
2577;DHT22;1298;51.252;6.802;2022-10-16T00:10:05;14.00;99.90
2577;DHT22;1298;51.252;6.802;2022-10-16T00:12:50;14.00;99.90
2577;DHT22;1298;51.252;6.802;2022-10-16T00:15:36;14.00;99.90
2577;DHT22;1298;51.252;6.802;2022-10-16T00:18:23;14.00;99.90
2577;DHT22;1298;51.252;6.802;2022-10-16T00:21:09;14.00;99.90
2577;DHT22;1298;51.252;6.802;2022-10-16T00:23:55;14.10;99.90
2577;DHT22;1298;51.252;6.802;2022-10-16T00:26:40;14.10;99.90
2577;DHT22;1298;51.252;6.802;2022-10-16T00:29:25;14.10;99.90
2577;DHT22;1298;51.252;6.802;2022-10-16T00:32:12;14.10;99.90
2577;DHT22;1298;51.252;6.802;2022-10-16T00:34:57;14.10;99.90
2577;DHT22;1298;51.252;6.802;2022-10-16T00:37:42;14.20;99.90
2577;DHT22;1298;51.252;6.802;2022-10-16T00:40:27;14.10;99.90
2577;DHT22;1298;51.252;6.802;2022-10-16T00:43:14;14.10;99.90
2577;DHT22;1298;51.252;6.802;2022-10-16T00:45:59;14.10;99.90
2577;DHT22;1298;51.252;6.802;2022-10-16T00:48:47;14.00;99.90
2577;DHT22;1298;51.252;6.802;2022-10-16T00:51:34;14.00;99.90
2577;DHT22;1298;51.252;6.802;2022-10-16T00:54:22;13.90;99.90
2577;DHT22;1298;51.252;6.802;2022-10-16T00:57:08;13.90;99.90
2577;DHT22;1298;51.252;6.802;2022-10-16T00:59:54;13.80;99.90
2577;DHT22;1298;51.252;6.802;2022-10-16T01:02:39;13.80;99.90
2577;DHT22;1298;51.252;6.802;2022-10-16T01:05:26;13.70;99.90
2577;DHT22;1298;51.252;6.802;2022-10-16T01:08:15;13.70;99.90
2577;DHT22;1298;51.252;6.802;2022-10-16T01:11:04;13.60;99.90
2577;DHT22;1298;51.252;6.802;2022-10-16T01:13:53;13.60;99.90
2577;DHT22;1298;51.252;6.802;2022-10-16T01:16:40;13.70;99.90
2577;DHT22;1298;51.252;6.802;2022-10-16T01:19:33;13.70;99.90
2577;DHT22;1298;51.252;6.802;2022-10-16T01:22:23;13.70;99.90
2577;DHT22;1298;51.252;6.802;2022-10-16T01:25:12;13.60;99.90
2577;DHT22;1298;51.252;6.802;2022-10-16T01:28:03;13.60;99.90
2577;DHT22;1298;51.252;6.802;2022-10-16T01:30:50;13.60;99.90
2577;DHT22;1298;51.252;6.802;2022-10-16T01:33:38;13.60;99.90
2577;DHT22;1298;51.252;6.802;2022-10-16T01:36:25;13.50;99.90
2577;DHT22;1298;51.252;6.802;2022-10-16T01:39:12;13.50;99.90
2577;DHT22;1298;51.252;6.802;2022-10-16T01:41:59;13.60;99.90
2577;DHT22;1298;51.252;6.802;2022-10-16T01:44:47;13.60;99.90
2577;DHT22;1298;51.252;6.802;2022-10-16T01:47:34;13.60;99.90
2577;DHT22;1298;51.252;6.802;2022-10-16T01:50:20;13.60;99.90
2577;DHT22;1298;51.252;6.802;2022-10-16T01:53:06;13.60;99.90
2577;DHT22;1298;51.252;6.802;2022-10-16T01:55:52;13.60;99.90
2577;DHT22;1298;51.252;6.802;2022-10-16T01:58:40;13.60;99.90
2577;DHT22;1298;51.252;6.802;2022-10-16T02:01:29;13.60;99.90
2577;DHT22;1298;51.252;6.802;2022-10-16T02:04:16;13.70;99.90
2577;DHT22;1298;51.252;6.802;2022-10-16T02:07:03;13.70;99.90
2577;DHT22;1298;51.252;6.802;2022-10-16T02:09:49;13.70;99.90
2577;DHT22;1298;51.252;6.802;2022-10-16T02:12:35;13.70;99.90
2577;DHT22;1298;51.252;6.802;2022-10-16T02:15:23;13.80;99.90
2577;DHT22;1298;51.252;6.802;2022-10-16T02:18:11;13.80;99.90
2577;DHT22;1298;51.252;6.802;2022-10-16T02:20:57;13.90;99.90
2577;DHT22;1298;51.252;6.802;2022-10-16T02:23:45;13.90;99.90
2577;DHT22;1298;51.252;6.802;2022-10-16T02:26:34;14.00;99.90
2577;DHT22;1298;51.252;6.802;2022-10-16T02:29:21;14.00;99.90
2577;DHT22;1298;51.252;6.802;2022-10-16T02:32:07;14.00;99.90
2577;DHT22;1298;51.252;6.802;2022-10-16T02:34:55;14.00;99.90
2577;DHT22;1298;51.252;6.802;2022-10-16T02:37:41;14.00;99.90
2577;DHT22;1298;51.252;6.802;2022-10-16T02:40:27;14.00;99.90
2577;DHT22;1298;51.252;6.802;2022-10-16T02:43:12;14.00;99.90
2577;DHT22;1298;51.252;6.802;2022-10-16T02:45:58;14.00;99.90
2577;DHT22;1298;51.252;6.802;2022-10-16T02:48:43;14.10;99.90
2577;DHT22;1298;51.252;6.802;2022-10-16T02:51:30;14.10;99.90
2577;DHT22;1298;51.252;6.802;2022-10-16T02:54:15;14.10;99.90
2577;DHT22;1298;51.252;6.802;2022-10-16T02:57:00;14.10;99.90
2577;DHT22;1298;51.252;6.802;2022-10-16T02:59:45;14.10;99.90
2577;DHT22;1298;51.252;6.802;2022-10-16T03:02:30;14.00;99.90
2577;DHT22;1298;51.252;6.802;2022-10-16T03:05:15;14.00;99.90
2577;DHT22;1298;51.252;6.802;2022-10-16T03:08:02;14.00;99.90
2577;DHT22;1298;51.252;6.802;2022-10-16T03:10:48;13.90;99.90
2577;DHT22;1298;51.252;6.802;2022-10-16T03:13:33;13.90;99.90
2577;DHT22;1298;51.252;6.802;2022-10-16T03:16:18;13.90;99.90
2577;DHT22;1298;51.252;6.802;2022-10-16T03:19:03;13.90;99.90
2577;DHT22;1298;51.252;6.802;2022-10-16T03:21:48;13.80;99.90
2577;DHT22;1298;51.252;6.802;2022-10-16T03:24:35;13.80;99.90
2577;DHT22;1298;51.252;6.802;2022-10-16T03:27:20;13.80;99.90
2577;DHT22;1298;51.252;6.802;2022-10-16T03:30:05;13.80;99.90
2577;DHT22;1298;51.252;6.802;2022-10-16T03:32:50;13.80;99.90
2577;DHT22;1298;51.252;6.802;2022-10-16T03:35:37;13.80;99.90
2577;DHT22;1298;51.252;6.802;2022-10-16T03:38:22;13.70;99.90
2577;DHT22;1298;51.252;6.802;2022-10-16T03:41:09;13.70;99.90
2577;DHT22;1298;51.252;6.802;2022-10-16T03:43:54;13.70;99.90
2577;DHT22;1298;51.252;6.802;2022-10-16T03:46:39;13.70;99.90
2577;DHT22;1298;51.252;6.802;2022-10-16T03:49:24;13.70;99.90
2577;DHT22;1298;51.252;6.802;2022-10-16T03:52:09;13.70;99.90
2577;DHT22;1298;51.252;6.802;2022-10-16T03:54:54;13.60;99.90
2577;DHT22;1298;51.252;6.802;2022-10-16T03:57:40;13.60;99.90
2577;DHT22;1298;51.252;6.802;2022-10-16T04:00:25;13.60;99.90
2577;DHT22;1298;51.252;6.802;2022-10-16T04:03:11;13.50;99.90
2577;DHT22;1298;51.252;6.802;2022-10-16T04:05:56;13.50;99.90
2577;DHT22;1298;51.252;6.802;2022-10-16T04:08:42;13.40;99.90
2577;DHT22;1298;51.252;6.802;2022-10-16T04:11:27;13.40;99.90
2577;DHT22;1298;51.252;6.802;2022-10-16T04:14:15;13.40;99.90
2577;DHT22;1298;51.252;6.802;2022-10-16T04:17:00;13.40;99.90
2577;DHT22;1298;51.252;6.802;2022-10-16T04:19:45;13.40;99.90
2577;DHT22;1298;51.252;6.802;2022-10-16T04:22:30;13.40;99.90
2577;DHT22;1298;51.252;6.802;2022-10-16T04:25:15;13.30;99.90
2577;DHT22;1298;51.252;6.802;2022-10-16T04:28:01;13.30;99.90
2577;DHT22;1298;51.252;6.802;2022-10-16T04:30:47;13.30;99.90
2577;DHT22;1298;51.252;6.802;2022-10-16T04:33:32;13.30;99.90
2577;DHT22;1298;51.252;6.802;2022-10-16T04:36:17;13.30;99.90
2577;DHT22;1298;51.252;6.802;2022-10-16T04:39:03;13.30;99.90
2577;DHT22;1298;51.252;6.802;2022-10-16T04:41:48;13.30;99.90
2577;DHT22;1298;51.252;6.802;2022-10-16T04:44:33;13.40;99.90
2577;DHT22;1298;51.252;6.802;2022-10-16T04:47:19;13.30;99.90
2577;DHT22;1298;51.252;6.802;2022-10-16T04:50:05;13.30;99.90
2577;DHT22;1298;51.252;6.802;2022-10-16T04:52:51;13.20;99.90
2577;DHT22;1298;51.252;6.802;2022-10-16T04:55:36;13.20;99.90
2577;DHT22;1298;51.252;6.802;2022-10-16T04:58:21;13.20;99.90
2577;DHT22;1298;51.252;6.802;2022-10-16T05:01:07;13.30;99.90
2577;DHT22;1298;51.252;6.802;2022-10-16T05:03:53;13.30;99.90
2577;DHT22;1298;51.252;6.802;2022-10-16T05:06:38;13.20;99.90
2577;DHT22;1298;51.252;6.802;2022-10-16T05:09:23;13.20;99.90
2577;DHT22;1298;51.252;6.802;2022-10-16T05:12:08;13.20;99.90
2577;DHT22;1298;51.252;6.802;2022-10-16T05:14:53;13.10;99.90
2577;DHT22;1298;51.252;6.802;2022-10-16T05:17:42;13.10;99.90
2577;DHT22;1298;51.252;6.802;2022-10-16T05:20:28;13.10;99.90
2577;DHT22;1298;51.252;6.802;2022-10-16T05:23:13;13.10;99.90
2577;DHT22;1298;51.252;6.802;2022-10-16T05:25:59;13.10;99.90
2577;DHT22;1298;51.252;6.802;2022-10-16T05:28:44;13.10;99.90
2577;DHT22;1298;51.252;6.802;2022-10-16T05:31:29;13.10;99.90
2577;DHT22;1298;51.252;6.802;2022-10-16T05:34:14;13.10;99.90
2577;DHT22;1298;51.252;6.802;2022-10-16T05:37:00;13.00;99.90
2577;DHT22;1298;51.252;6.802;2022-10-16T05:39:46;13.00;99.90
2577;DHT22;1298;51.252;6.802;2022-10-16T05:42:31;13.00;99.90
2577;DHT22;1298;51.252;6.802;2022-10-16T05:45:16;13.10;99.90
2577;DHT22;1298;51.252;6.802;2022-10-16T05:48:01;13.10;99.90
2577;DHT22;1298;51.252;6.802;2022-10-16T05:50:46;13.10;99.90
2577;DHT22;1298;51.252;6.802;2022-10-16T05:53:33;13.10;99.90
2577;DHT22;1298;51.252;6.802;2022-10-16T05:56:19;13.10;99.90
2577;DHT22;1298;51.252;6.802;2022-10-16T05:59:04;13.10;99.90
2577;DHT22;1298;51.252;6.802;2022-10-16T06:01:49;13.10;99.90
2577;DHT22;1298;51.252;6.802;2022-10-16T06:04:34;13.10;99.90
2577;DHT22;1298;51.252;6.802;2022-10-16T06:07:20;13.20;99.90
2577;DHT22;1298;51.252;6.802;2022-10-16T06:10:07;13.20;99.90
2577;DHT22;1298;51.252;6.802;2022-10-16T06:12:52;13.20;99.90
2577;DHT22;1298;51.252;6.802;2022-10-16T06:15:38;13.20;99.90
2577;DHT22;1298;51.252;6.802;2022-10-16T06:18:25;13.30;99.90
2577;DHT22;1298;51.252;6.802;2022-10-16T06:21:11;13.30;99.90
2577;DHT22;1298;51.252;6.802;2022-10-16T06:23:57;13.30;99.90
2577;DHT22;1298;51.252;6.802;2022-10-16T06:26:44;13.30;99.90
2577;DHT22;1298;51.252;6.802;2022-10-16T06:29:29;13.40;99.90
2577;DHT22;1298;51.252;6.802;2022-10-16T06:32:14;13.40;99.90
2577;DHT22;1298;51.252;6.802;2022-10-16T06:34:59;13.40;99.90
2577;DHT22;1298;51.252;6.802;2022-10-16T06:37:44;13.50;99.90
2577;DHT22;1298;51.252;6.802;2022-10-16T06:40:29;13.50;99.90
2577;DHT22;1298;51.252;6.802;2022-10-16T06:43:16;13.50;99.90
2577;DHT22;1298;51.252;6.802;2022-10-16T06:46:01;13.50;99.90
2577;DHT22;1298;51.252;6.802;2022-10-16T06:48:47;13.60;99.90
2577;DHT22;1298;51.252;6.802;2022-10-16T06:51:32;13.70;99.90
2577;DHT22;1298;51.252;6.802;2022-10-16T06:54:19;13.70;99.90
2577;DHT22;1298;51.252;6.802;2022-10-16T06:57:04;13.70;99.90
2577;DHT22;1298;51.252;6.802;2022-10-16T06:59:50;13.80;99.90
2577;DHT22;1298;51.252;6.802;2022-10-16T07:02:36;13.80;99.90
2577;DHT22;1298;51.252;6.802;2022-10-16T07:05:21;13.90;99.90
2577;DHT22;1298;51.252;6.802;2022-10-16T07:08:06;13.90;99.90
2577;DHT22;1298;51.252;6.802;2022-10-16T07:10:57;13.90;99.90
2577;DHT22;1298;51.252;6.802;2022-10-16T07:13:43;13.90;99.90
2577;DHT22;1298;51.252;6.802;2022-10-16T07:16:30;13.90;99.90
2577;DHT22;1298;51.252;6.802;2022-10-16T07:19:16;13.90;99.90
2577;DHT22;1298;51.252;6.802;2022-10-16T07:22:02;13.90;99.90
2577;DHT22;1298;51.252;6.802;2022-10-16T07:24:48;14.00;99.90
2577;DHT22;1298;51.252;6.802;2022-10-16T07:27:34;14.00;99.90
2577;DHT22;1298;51.252;6.802;2022-10-16T07:30:19;14.10;99.90
2577;DHT22;1298;51.252;6.802;2022-10-16T07:33:05;14.10;99.90
2577;DHT22;1298;51.252;6.802;2022-10-16T07:35:51;14.10;99.90
2577;DHT22;1298;51.252;6.802;2022-10-16T07:38:37;14.10;99.90
2577;DHT22;1298;51.252;6.802;2022-10-16T07:41:22;14.10;99.90
2577;DHT22;1298;51.252;6.802;2022-10-16T07:44:07;14.20;99.90
2577;DHT22;1298;51.252;6.802;2022-10-16T07:46:53;14.30;99.90
2577;DHT22;1298;51.252;6.802;2022-10-16T07:49:39;14.30;99.90
2577;DHT22;1298;51.252;6.802;2022-10-16T07:52:24;14.40;99.90
2577;DHT22;1298;51.252;6.802;2022-10-16T07:55:09;14.50;99.90
2577;DHT22;1298;51.252;6.802;2022-10-16T07:57:54;14.50;99.90
2577;DHT22;1298;51.252;6.802;2022-10-16T08:00:40;14.60;99.90
2577;DHT22;1298;51.252;6.802;2022-10-16T08:03:25;14.70;99.90
2577;DHT22;1298;51.252;6.802;2022-10-16T08:06:12;14.80;99.90
2577;DHT22;1298;51.252;6.802;2022-10-16T08:08:57;14.90;99.90
2577;DHT22;1298;51.252;6.802;2022-10-16T08:11:43;15.00;99.90
2577;DHT22;1298;51.252;6.802;2022-10-16T08:14:29;15.10;99.90
2577;DHT22;1298;51.252;6.802;2022-10-16T08:17:14;15.20;99.90
2577;DHT22;1298;51.252;6.802;2022-10-16T08:20:00;15.30;99.90
2577;DHT22;1298;51.252;6.802;2022-10-16T08:22:46;15.40;99.90
2577;DHT22;1298;51.252;6.802;2022-10-16T08:25:33;15.50;99.90
2577;DHT22;1298;51.252;6.802;2022-10-16T08:28:19;15.50;99.90
2577;DHT22;1298;51.252;6.802;2022-10-16T08:31:05;15.60;99.90
2577;DHT22;1298;51.252;6.802;2022-10-16T08:33:57;15.70;99.90
2577;DHT22;1298;51.252;6.802;2022-10-16T08:36:47;15.80;99.90
2577;DHT22;1298;51.252;6.802;2022-10-16T08:39:34;15.90;99.90
2577;DHT22;1298;51.252;6.802;2022-10-16T08:42:27;15.90;99.90
2577;DHT22;1298;51.252;6.802;2022-10-16T08:45:26;16.00;99.90
2577;DHT22;1298;51.252;6.802;2022-10-16T08:48:17;16.00;99.90
2577;DHT22;1298;51.252;6.802;2022-10-16T08:51:04;16.10;99.90
2577;DHT22;1298;51.252;6.802;2022-10-16T08:53:51;16.20;99.90
2577;DHT22;1298;51.252;6.802;2022-10-16T08:56:40;16.30;99.90
2577;DHT22;1298;51.252;6.802;2022-10-16T08:59:25;16.40;99.90
2577;DHT22;1298;51.252;6.802;2022-10-16T09:02:24;16.40;99.90
2577;DHT22;1298;51.252;6.802;2022-10-16T09:05:20;16.50;99.90
2577;DHT22;1298;51.252;6.802;2022-10-16T09:08:08;16.50;99.90
2577;DHT22;1298;51.252;6.802;2022-10-16T09:10:58;16.60;99.90
2577;DHT22;1298;51.252;6.802;2022-10-16T09:13:50;16.70;99.90
2577;DHT22;1298;51.252;6.802;2022-10-16T09:16:39;16.80;99.90
2577;DHT22;1298;51.252;6.802;2022-10-16T09:19:28;16.80;99.90
2577;DHT22;1298;51.252;6.802;2022-10-16T09:22:17;16.80;99.90
2577;DHT22;1298;51.252;6.802;2022-10-16T09:25:09;16.80;99.90
2577;DHT22;1298;51.252;6.802;2022-10-16T09:27:55;16.90;99.90
2577;DHT22;1298;51.252;6.802;2022-10-16T09:30:41;16.90;99.90
2577;DHT22;1298;51.252;6.802;2022-10-16T09:33:28;16.90;99.90
2577;DHT22;1298;51.252;6.802;2022-10-16T09:36:15;16.90;99.90
2577;DHT22;1298;51.252;6.802;2022-10-16T09:39:05;17.00;99.90
2577;DHT22;1298;51.252;6.802;2022-10-16T09:41:51;17.00;99.90
2577;DHT22;1298;51.252;6.802;2022-10-16T09:44:37;17.00;99.90
2577;DHT22;1298;51.252;6.802;2022-10-16T09:47:24;17.10;99.90
2577;DHT22;1298;51.252;6.802;2022-10-16T09:50:20;17.10;99.90
2577;DHT22;1298;51.252;6.802;2022-10-16T09:53:11;17.10;99.90
2577;DHT22;1298;51.252;6.802;2022-10-16T09:55:56;17.20;99.90
2577;DHT22;1298;51.252;6.802;2022-10-16T09:58:42;17.20;99.90
2577;DHT22;1298;51.252;6.802;2022-10-16T10:01:29;17.20;99.90
2577;DHT22;1298;51.252;6.802;2022-10-16T10:04:17;17.20;99.90
2577;DHT22;1298;51.252;6.802;2022-10-16T10:07:06;17.30;99.90
2577;DHT22;1298;51.252;6.802;2022-10-16T10:10:01;17.30;99.90
2577;DHT22;1298;51.252;6.802;2022-10-16T10:12:46;17.30;99.90
2577;DHT22;1298;51.252;6.802;2022-10-16T10:15:33;17.30;99.90
2577;DHT22;1298;51.252;6.802;2022-10-16T10:18:19;17.50;99.90
2577;DHT22;1298;51.252;6.802;2022-10-16T10:21:13;17.50;99.90
2577;DHT22;1298;51.252;6.802;2022-10-16T10:24:00;17.60;99.90
2577;DHT22;1298;51.252;6.802;2022-10-16T10:26:50;17.50;99.90
2577;DHT22;1298;51.252;6.802;2022-10-16T10:29:41;17.50;99.90
2577;DHT22;1298;51.252;6.802;2022-10-16T10:32:31;17.40;99.90
2577;DHT22;1298;51.252;6.802;2022-10-16T10:35:19;17.40;99.90
2577;DHT22;1298;51.252;6.802;2022-10-16T10:38:12;17.40;99.90
2577;DHT22;1298;51.252;6.802;2022-10-16T10:41:04;17.60;99.90
2577;DHT22;1298;51.252;6.802;2022-10-16T10:43:56;17.70;99.90
2577;DHT22;1298;51.252;6.802;2022-10-16T10:46:47;17.60;99.90
2577;DHT22;1298;51.252;6.802;2022-10-16T10:49:38;17.50;99.90
2577;DHT22;1298;51.252;6.802;2022-10-16T10:52:31;17.50;99.90
2577;DHT22;1298;51.252;6.802;2022-10-16T10:55:21;17.60;99.90
2577;DHT22;1298;51.252;6.802;2022-10-16T10:58:25;17.70;99.90
2577;DHT22;1298;51.252;6.802;2022-10-16T11:01:13;17.70;99.90
2577;DHT22;1298;51.252;6.802;2022-10-16T11:04:03;17.60;99.90
2577;DHT22;1298;51.252;6.802;2022-10-16T11:06:52;17.60;99.90
2577;DHT22;1298;51.252;6.802;2022-10-16T11:09:41;17.60;99.90
2577;DHT22;1298;51.252;6.802;2022-10-16T11:12:29;17.70;99.90
2577;DHT22;1298;51.252;6.802;2022-10-16T11:15:17;17.70;99.90
2577;DHT22;1298;51.252;6.802;2022-10-16T11:18:05;17.80;99.90
2577;DHT22;1298;51.252;6.802;2022-10-16T11:20:52;18.00;99.90
2577;DHT22;1298;51.252;6.802;2022-10-16T11:23:39;18.10;99.90
2577;DHT22;1298;51.252;6.802;2022-10-16T11:26:28;18.10;99.90
2577;DHT22;1298;51.252;6.802;2022-10-16T11:29:16;18.10;99.90
2577;DHT22;1298;51.252;6.802;2022-10-16T11:32:05;18.10;99.90
2577;DHT22;1298;51.252;6.802;2022-10-16T11:34:52;18.10;99.90
2577;DHT22;1298;51.252;6.802;2022-10-16T11:37:40;18.10;99.90
2577;DHT22;1298;51.252;6.802;2022-10-16T11:40:28;18.30;99.90
2577;DHT22;1298;51.252;6.802;2022-10-16T11:43:15;18.30;99.90
2577;DHT22;1298;51.252;6.802;2022-10-16T11:46:04;18.50;99.90
2577;DHT22;1298;51.252;6.802;2022-10-16T11:48:54;18.60;99.90
2577;DHT22;1298;51.252;6.802;2022-10-16T11:51:43;18.60;99.90
2577;DHT22;1298;51.252;6.802;2022-10-16T11:54:32;18.60;99.90
2577;DHT22;1298;51.252;6.802;2022-10-16T11:57:20;18.50;99.90
2577;DHT22;1298;51.252;6.802;2022-10-16T12:00:08;18.40;99.90
2577;DHT22;1298;51.252;6.802;2022-10-16T12:02:58;18.30;99.90
2577;DHT22;1298;51.252;6.802;2022-10-16T12:05:51;18.40;99.90
2577;DHT22;1298;51.252;6.802;2022-10-16T12:08:39;18.70;99.90
2577;DHT22;1298;51.252;6.802;2022-10-16T12:11:33;18.80;99.90
2577;DHT22;1298;51.252;6.802;2022-10-16T12:14:20;19.00;99.90
2577;DHT22;1298;51.252;6.802;2022-10-16T12:17:22;19.00;99.90
2577;DHT22;1298;51.252;6.802;2022-10-16T12:20:23;19.00;99.90
2577;DHT22;1298;51.252;6.802;2022-10-16T12:23:16;19.00;99.90
2577;DHT22;1298;51.252;6.802;2022-10-16T12:26:05;19.10;99.90
2577;DHT22;1298;51.252;6.802;2022-10-16T12:28:51;19.20;99.90
2577;DHT22;1298;51.252;6.802;2022-10-16T12:31:36;19.30;99.90
2577;DHT22;1298;51.252;6.802;2022-10-16T12:34:26;19.80;99.90
2577;DHT22;1298;51.252;6.802;2022-10-16T12:37:14;20.20;99.90
2577;DHT22;1298;51.252;6.802;2022-10-16T12:40:11;20.00;99.90
2577;DHT22;1298;51.252;6.802;2022-10-16T12:42:57;20.10;99.90
2577;DHT22;1298;51.252;6.802;2022-10-16T12:45:43;20.00;99.90
2577;DHT22;1298;51.252;6.802;2022-10-16T12:48:30;20.00;99.90
2577;DHT22;1298;51.252;6.802;2022-10-16T12:51:21;19.90;99.90
2577;DHT22;1298;51.252;6.802;2022-10-16T12:54:12;19.80;99.90
2577;DHT22;1298;51.252;6.802;2022-10-16T12:57:03;19.80;99.90
2577;DHT22;1298;51.252;6.802;2022-10-16T12:59:51;19.70;99.90
2577;DHT22;1298;51.252;6.802;2022-10-16T13:02:46;20.70;99.90
2577;DHT22;1298;51.252;6.802;2022-10-16T13:05:35;21.20;99.90
2577;DHT22;1298;51.252;6.802;2022-10-16T13:08:35;22.10;99.90
2577;DHT22;1298;51.252;6.802;2022-10-16T13:11:27;21.60;99.90
2577;DHT22;1298;51.252;6.802;2022-10-16T13:14:19;21.10;99.90
2577;DHT22;1298;51.252;6.802;2022-10-16T13:17:09;21.50;99.90
2577;DHT22;1298;51.252;6.802;2022-10-16T13:19:58;22.40;99.90
2577;DHT22;1298;51.252;6.802;2022-10-16T13:22:49;23.80;99.90
2577;DHT22;1298;51.252;6.802;2022-10-16T13:25:39;24.60;99.90
2577;DHT22;1298;51.252;6.802;2022-10-16T13:28:29;25.10;99.90
2577;DHT22;1298;51.252;6.802;2022-10-16T13:31:17;26.20;99.90
2577;DHT22;1298;51.252;6.802;2022-10-16T13:34:03;26.40;99.90
2577;DHT22;1298;51.252;6.802;2022-10-16T13:36:50;26.50;99.90
2577;DHT22;1298;51.252;6.802;2022-10-16T13:39:36;27.00;99.90
2577;DHT22;1298;51.252;6.802;2022-10-16T13:42:23;26.50;99.90
2577;DHT22;1298;51.252;6.802;2022-10-16T13:45:18;25.40;99.90
2577;DHT22;1298;51.252;6.802;2022-10-16T13:48:04;24.30;99.90
2577;DHT22;1298;51.252;6.802;2022-10-16T13:50:59;23.80;99.90
2577;DHT22;1298;51.252;6.802;2022-10-16T13:53:45;23.10;99.90
2577;DHT22;1298;51.252;6.802;2022-10-16T13:56:31;22.60;99.90
2577;DHT22;1298;51.252;6.802;2022-10-16T13:59:23;23.90;99.90
2577;DHT22;1298;51.252;6.802;2022-10-16T14:02:16;25.10;99.90
2577;DHT22;1298;51.252;6.802;2022-10-16T14:05:03;25.50;99.90
2577;DHT22;1298;51.252;6.802;2022-10-16T14:07:49;25.10;99.90
2577;DHT22;1298;51.252;6.802;2022-10-16T14:10:35;24.20;99.90
2577;DHT22;1298;51.252;6.802;2022-10-16T14:13:23;23.10;99.90
2577;DHT22;1298;51.252;6.802;2022-10-16T14:16:17;22.20;99.90
2577;DHT22;1298;51.252;6.802;2022-10-16T14:19:04;21.60;99.90
2577;DHT22;1298;51.252;6.802;2022-10-16T14:21:50;21.10;99.90
2577;DHT22;1298;51.252;6.802;2022-10-16T14:24:36;21.00;99.90
2577;DHT22;1298;51.252;6.802;2022-10-16T14:27:26;21.00;99.90
2577;DHT22;1298;51.252;6.802;2022-10-16T14:30:15;21.40;99.90
2577;DHT22;1298;51.252;6.802;2022-10-16T14:33:02;21.80;99.90
2577;DHT22;1298;51.252;6.802;2022-10-16T14:36:03;22.10;99.90
2577;DHT22;1298;51.252;6.802;2022-10-16T14:38:49;21.60;99.90
2577;DHT22;1298;51.252;6.802;2022-10-16T14:41:41;21.30;99.90
2577;DHT22;1298;51.252;6.802;2022-10-16T14:44:28;21.10;99.90
2577;DHT22;1298;51.252;6.802;2022-10-16T14:47:14;21.00;99.90
2577;DHT22;1298;51.252;6.802;2022-10-16T14:50:01;20.90;99.90
2577;DHT22;1298;51.252;6.802;2022-10-16T14:52:48;20.80;99.90
2577;DHT22;1298;51.252;6.802;2022-10-16T14:55:36;20.60;99.90
2577;DHT22;1298;51.252;6.802;2022-10-16T14:58:21;20.40;99.90
2577;DHT22;1298;51.252;6.802;2022-10-16T15:01:08;20.30;99.90
2577;DHT22;1298;51.252;6.802;2022-10-16T15:03:55;20.10;99.90
2577;DHT22;1298;51.252;6.802;2022-10-16T15:06:41;20.00;99.90
2577;DHT22;1298;51.252;6.802;2022-10-16T15:09:27;20.00;99.90
2577;DHT22;1298;51.252;6.802;2022-10-16T15:12:12;19.90;99.90
2577;DHT22;1298;51.252;6.802;2022-10-16T15:14:57;19.80;99.90
2577;DHT22;1298;51.252;6.802;2022-10-16T15:17:42;19.80;99.90
2577;DHT22;1298;51.252;6.802;2022-10-16T15:20:29;19.70;99.90
2577;DHT22;1298;51.252;6.802;2022-10-16T15:23:16;19.70;99.90
2577;DHT22;1298;51.252;6.802;2022-10-16T15:26:03;19.70;99.90
2577;DHT22;1298;51.252;6.802;2022-10-16T15:28:48;19.70;99.90
2577;DHT22;1298;51.252;6.802;2022-10-16T15:31:34;19.70;99.90
2577;DHT22;1298;51.252;6.802;2022-10-16T15:34:20;19.70;99.90
2577;DHT22;1298;51.252;6.802;2022-10-16T15:37:05;19.60;99.90
2577;DHT22;1298;51.252;6.802;2022-10-16T15:39:50;19.50;99.90
2577;DHT22;1298;51.252;6.802;2022-10-16T15:42:37;19.40;99.90
2577;DHT22;1298;51.252;6.802;2022-10-16T15:45:23;19.30;99.90
2577;DHT22;1298;51.252;6.802;2022-10-16T15:48:09;19.20;99.90
2577;DHT22;1298;51.252;6.802;2022-10-16T15:50:55;19.10;99.90
2577;DHT22;1298;51.252;6.802;2022-10-16T15:53:40;19.10;99.90
2577;DHT22;1298;51.252;6.802;2022-10-16T15:56:25;19.00;99.90
2577;DHT22;1298;51.252;6.802;2022-10-16T15:59:13;18.90;99.90
2577;DHT22;1298;51.252;6.802;2022-10-16T16:01:59;18.80;99.90
2577;DHT22;1298;51.252;6.802;2022-10-16T16:04:44;18.80;99.90
2577;DHT22;1298;51.252;6.802;2022-10-16T16:07:31;18.70;99.90
2577;DHT22;1298;51.252;6.802;2022-10-16T16:10:17;18.60;99.90
2577;DHT22;1298;51.252;6.802;2022-10-16T16:13:03;18.60;99.90
2577;DHT22;1298;51.252;6.802;2022-10-16T16:15:49;18.50;99.90
2577;DHT22;1298;51.252;6.802;2022-10-16T16:18:34;18.40;99.90
2577;DHT22;1298;51.252;6.802;2022-10-16T16:21:20;18.30;99.90
2577;DHT22;1298;51.252;6.802;2022-10-16T16:24:05;18.20;99.90
2577;DHT22;1298;51.252;6.802;2022-10-16T16:26:51;18.10;99.90
2577;DHT22;1298;51.252;6.802;2022-10-16T16:29:37;18.10;99.90
2577;DHT22;1298;51.252;6.802;2022-10-16T16:32:23;18.00;99.90
2577;DHT22;1298;51.252;6.802;2022-10-16T16:35:09;18.00;99.90
2577;DHT22;1298;51.252;6.802;2022-10-16T16:37:55;17.90;99.90
2577;DHT22;1298;51.252;6.802;2022-10-16T16:40:40;17.90;99.90
2577;DHT22;1298;51.252;6.802;2022-10-16T16:43:25;17.80;99.90
2577;DHT22;1298;51.252;6.802;2022-10-16T16:46:11;17.80;99.90
2577;DHT22;1298;51.252;6.802;2022-10-16T16:48:58;17.70;99.90
2577;DHT22;1298;51.252;6.802;2022-10-16T16:51:43;17.70;99.90
2577;DHT22;1298;51.252;6.802;2022-10-16T16:54:28;17.60;99.90
2577;DHT22;1298;51.252;6.802;2022-10-16T16:57:13;17.60;99.90
2577;DHT22;1298;51.252;6.802;2022-10-16T16:59:59;17.50;99.90
2577;DHT22;1298;51.252;6.802;2022-10-16T17:02:44;17.50;99.90
2577;DHT22;1298;51.252;6.802;2022-10-16T17:05:34;17.50;99.90
2577;DHT22;1298;51.252;6.802;2022-10-16T17:08:19;17.40;99.90
2577;DHT22;1298;51.252;6.802;2022-10-16T17:11:04;17.40;99.90
2577;DHT22;1298;51.252;6.802;2022-10-16T17:13:50;17.40;99.90
2577;DHT22;1298;51.252;6.802;2022-10-16T17:16:36;17.30;99.90
2577;DHT22;1298;51.252;6.802;2022-10-16T17:19:22;17.30;99.90
2577;DHT22;1298;51.252;6.802;2022-10-16T17:22:08;17.20;99.90
2577;DHT22;1298;51.252;6.802;2022-10-16T17:24:53;17.10;99.90
2577;DHT22;1298;51.252;6.802;2022-10-16T17:27:39;17.10;99.90
2577;DHT22;1298;51.252;6.802;2022-10-16T17:30:24;17.10;99.90
2577;DHT22;1298;51.252;6.802;2022-10-16T17:33:10;17.10;99.90
2577;DHT22;1298;51.252;6.802;2022-10-16T17:35:55;17.10;99.90
2577;DHT22;1298;51.252;6.802;2022-10-16T17:38:44;17.10;99.90
2577;DHT22;1298;51.252;6.802;2022-10-16T17:41:29;17.10;99.90
2577;DHT22;1298;51.252;6.802;2022-10-16T17:44:15;17.10;99.90
2577;DHT22;1298;51.252;6.802;2022-10-16T17:47:03;17.10;99.90
2577;DHT22;1298;51.252;6.802;2022-10-16T17:49:49;17.10;99.90
2577;DHT22;1298;51.252;6.802;2022-10-16T17:52:34;17.10;99.90
2577;DHT22;1298;51.252;6.802;2022-10-16T17:55:21;17.10;99.90
2577;DHT22;1298;51.252;6.802;2022-10-16T17:58:06;17.10;99.90
2577;DHT22;1298;51.252;6.802;2022-10-16T18:00:51;17.20;99.90
2577;DHT22;1298;51.252;6.802;2022-10-16T18:03:37;17.20;99.90
2577;DHT22;1298;51.252;6.802;2022-10-16T18:06:22;17.20;99.90
2577;DHT22;1298;51.252;6.802;2022-10-16T18:09:07;17.30;99.90
2577;DHT22;1298;51.252;6.802;2022-10-16T18:11:55;17.30;99.90